sensor_id;sensor_type;location;lat;lon;timestamp;temperature;humidity
48043;DHT22;33988;47.992;8.820;2023-06-24T00:00:26;23.20;47.60
48043;DHT22;33988;47.992;8.820;2023-06-24T00:02:53;23.20;47.70
48043;DHT22;33988;47.992;8.820;2023-06-24T00:05:20;23.20;47.70
48043;DHT22;33988;47.992;8.820;2023-06-24T00:07:48;23.20;47.80
48043;DHT22;33988;47.992;8.820;2023-06-24T00:10:20;23.20;47.80
48043;DHT22;33988;47.992;8.820;2023-06-24T00:12:47;23.10;47.80
48043;DHT22;33988;47.992;8.820;2023-06-24T00:15:19;23.10;47.80
48043;DHT22;33988;47.992;8.820;2023-06-24T00:17:48;23.10;47.80
48043;DHT22;33988;47.992;8.820;2023-06-24T00:20:16;23.10;47.80
48043;DHT22;33988;47.992;8.820;2023-06-24T00:22:44;23.00;47.70
48043;DHT22;33988;47.992;8.820;2023-06-24T00:25:15;23.00;47.70
48043;DHT22;33988;47.992;8.820;2023-06-24T00:27:42;23.00;47.80
48043;DHT22;33988;47.992;8.820;2023-06-24T00:30:10;23.00;47.80
48043;DHT22;33988;47.992;8.820;2023-06-24T00:32:37;23.00;47.80
48043;DHT22;33988;47.992;8.820;2023-06-24T00:35:07;22.90;47.80
48043;DHT22;33988;47.992;8.820;2023-06-24T00:37:34;22.90;47.90
48043;DHT22;33988;47.992;8.820;2023-06-24T00:40:01;22.90;48.00
48043;DHT22;33988;47.992;8.820;2023-06-24T00:42:33;22.80;48.00
48043;DHT22;33988;47.992;8.820;2023-06-24T00:45:00;22.80;48.00
48043;DHT22;33988;47.992;8.820;2023-06-24T00:47:33;22.80;48.00
48043;DHT22;33988;47.992;8.820;2023-06-24T00:50:02;22.70;48.00
48043;DHT22;33988;47.992;8.820;2023-06-24T00:52:30;22.70;48.00
48043;DHT22;33988;47.992;8.820;2023-06-24T00:54:57;22.70;48.20
48043;DHT22;33988;47.992;8.820;2023-06-24T00:57:24;22.60;48.10
48043;DHT22;33988;47.992;8.820;2023-06-24T00:59:55;22.60;48.10
48043;DHT22;33988;47.992;8.820;2023-06-24T01:02:23;22.30;48.20
48043;DHT22;33988;47.992;8.820;2023-06-24T01:04:58;22.50;48.10
48043;DHT22;33988;47.992;8.820;2023-06-24T01:07:28;22.50;48.20
48043;DHT22;33988;47.992;8.820;2023-06-24T01:09:59;22.40;48.10
48043;DHT22;33988;47.992;8.820;2023-06-24T01:12:29;22.40;48.20
48043;DHT22;33988;47.992;8.820;2023-06-24T01:15:02;22.40;48.30
48043;DHT22;33988;47.992;8.820;2023-06-24T01:18:16;22.40;48.40
48043;DHT22;33988;47.992;8.820;2023-06-24T01:21:14;22.30;48.60
48043;DHT22;33988;47.992;8.820;2023-06-24T01:26:53;22.20;48.50
48043;DHT22;33988;47.992;8.820;2023-06-24T01:32:49;22.10;48.70
48043;DHT22;33988;47.992;8.820;2023-06-24T01:35:25;22.10;48.80
48043;DHT22;33988;47.992;8.820;2023-06-24T01:37:56;22.10;48.80
48043;DHT22;33988;47.992;8.820;2023-06-24T01:40:34;22.10;48.80
48043;DHT22;33988;47.992;8.820;2023-06-24T01:43:10;22.00;48.90
48043;DHT22;33988;47.992;8.820;2023-06-24T01:45:50;22.00;48.90
48043;DHT22;33988;47.992;8.820;2023-06-24T01:48:28;22.00;49.00
48043;DHT22;33988;47.992;8.820;2023-06-24T01:51:11;21.90;49.00
48043;DHT22;33988;47.992;8.820;2023-06-24T01:53:51;21.90;49.10
48043;DHT22;33988;47.992;8.820;2023-06-24T01:56:22;21.90;49.00
48043;DHT22;33988;47.992;8.820;2023-06-24T01:58:53;21.70;49.10
48043;DHT22;33988;47.992;8.820;2023-06-24T02:01:24;21.80;48.90
48043;DHT22;33988;47.992;8.820;2023-06-24T02:03:55;21.90;49.00
48043;DHT22;33988;47.992;8.820;2023-06-24T02:06:23;21.90;49.00
48043;DHT22;33988;47.992;8.820;2023-06-24T02:08:51;21.90;49.10
48043;DHT22;33988;47.992;8.820;2023-06-24T02:11:23;21.80;49.10
48043;DHT22;33988;47.992;8.820;2023-06-24T02:13:51;21.80;49.10
48043;DHT22;33988;47.992;8.820;2023-06-24T02:16:21;21.80;49.10
48043;DHT22;33988;47.992;8.820;2023-06-24T02:18:48;21.80;49.20
48043;DHT22;33988;47.992;8.820;2023-06-24T02:21:17;21.80;49.20
48043;DHT22;33988;47.992;8.820;2023-06-24T02:23:53;21.70;49.30
48043;DHT22;33988;47.992;8.820;2023-06-24T02:26:23;21.70;49.30
48043;DHT22;33988;47.992;8.820;2023-06-24T02:28:52;21.70;49.30
48043;DHT22;33988;47.992;8.820;2023-06-24T02:31:20;21.70;49.30
48043;DHT22;33988;47.992;8.820;2023-06-24T02:33:47;21.70;49.30
48043;DHT22;33988;47.992;8.820;2023-06-24T02:36:19;21.70;49.30
48043;DHT22;33988;47.992;8.820;2023-06-24T02:38:46;21.60;49.20
48043;DHT22;33988;47.992;8.820;2023-06-24T02:41:15;21.60;49.20
48043;DHT22;33988;47.992;8.820;2023-06-24T02:43:42;21.60;49.20
48043;DHT22;33988;47.992;8.820;2023-06-24T02:46:14;21.60;49.30
48043;DHT22;33988;47.992;8.820;2023-06-24T02:48:44;21.50;49.30
48043;DHT22;33988;47.992;8.820;2023-06-24T02:51:16;21.50;49.30
48043;DHT22;33988;47.992;8.820;2023-06-24T02:53:45;21.50;49.40
48043;DHT22;33988;47.992;8.820;2023-06-24T02:56:15;21.50;49.40
48043;DHT22;33988;47.992;8.820;2023-06-24T02:58:50;21.50;49.40
48043;DHT22;33988;47.992;8.820;2023-06-24T03:01:23;21.40;49.30
48043;DHT22;33988;47.992;8.820;2023-06-24T03:03:56;21.40;49.30
48043;DHT22;33988;47.992;8.820;2023-06-24T03:06:26;21.40;49.40
48043;DHT22;33988;47.992;8.820;2023-06-24T03:08:53;21.40;49.40
48043;DHT22;33988;47.992;8.820;2023-06-24T03:11:20;21.30;49.40
48043;DHT22;33988;47.992;8.820;2023-06-24T03:13:51;21.30;50.10
48043;DHT22;33988;47.992;8.820;2023-06-24T03:16:20;21.30;49.50
48043;DHT22;33988;47.992;8.820;2023-06-24T03:18:47;21.30;49.50
48043;DHT22;33988;47.992;8.820;2023-06-24T03:21:14;21.30;49.60
48043;DHT22;33988;47.992;8.820;2023-06-24T03:23:44;21.30;49.60
48043;DHT22;33988;47.992;8.820;2023-06-24T03:26:11;21.20;49.60
48043;DHT22;33988;47.992;8.820;2023-06-24T03:28:40;21.20;49.60
48043;DHT22;33988;47.992;8.820;2023-06-24T03:31:07;21.20;49.60
48043;DHT22;33988;47.992;8.820;2023-06-24T03:33:34;21.10;49.60
48043;DHT22;33988;47.992;8.820;2023-06-24T03:36:02;21.10;49.70
48043;DHT22;33988;47.992;8.820;2023-06-24T03:38:31;21.10;49.70
48043;DHT22;33988;47.992;8.820;2023-06-24T03:41:01;21.10;49.80
48043;DHT22;33988;47.992;8.820;2023-06-24T03:43:27;21.10;49.90
48043;DHT22;33988;47.992;8.820;2023-06-24T03:45:54;21.10;49.90
48043;DHT22;33988;47.992;8.820;2023-06-24T03:48:23;21.10;50.00
48043;DHT22;33988;47.992;8.820;2023-06-24T03:50:50;21.10;50.00
48043;DHT22;33988;47.992;8.820;2023-06-24T03:53:24;21.10;50.00
48043;DHT22;33988;47.992;8.820;2023-06-24T03:55:51;21.00;50.00
48043;DHT22;33988;47.992;8.820;2023-06-24T03:58:20;21.00;50.00
48043;DHT22;33988;47.992;8.820;2023-06-24T04:00:49;21.00;50.00
48043;DHT22;33988;47.992;8.820;2023-06-24T04:03:24;21.00;50.00
48043;DHT22;33988;47.992;8.820;2023-06-24T04:05:53;21.00;50.00
48043;DHT22;33988;47.992;8.820;2023-06-24T04:08:21;21.00;50.00
48043;DHT22;33988;47.992;8.820;2023-06-24T04:10:49;21.00;50.00
48043;DHT22;33988;47.992;8.820;2023-06-24T04:13:18;21.00;50.10
48043;DHT22;33988;47.992;8.820;2023-06-24T04:15:47;21.00;50.10
48043;DHT22;33988;47.992;8.820;2023-06-24T04:18:14;21.00;50.20
48043;DHT22;33988;47.992;8.820;2023-06-24T04:20:43;21.00;50.20
48043;DHT22;33988;47.992;8.820;2023-06-24T04:23:13;21.00;50.20
48043;DHT22;33988;47.992;8.820;2023-06-24T04:25:43;21.00;50.20
48043;DHT22;33988;47.992;8.820;2023-06-24T04:28:10;21.00;50.20
48043;DHT22;33988;47.992;8.820;2023-06-24T04:30:39;21.00;50.20
48043;DHT22;33988;47.992;8.820;2023-06-24T04:33:09;21.00;50.90
48043;DHT22;33988;47.992;8.820;2023-06-24T04:35:38;21.00;50.30
48043;DHT22;33988;47.992;8.820;2023-06-24T04:38:05;21.00;50.30
48043;DHT22;33988;47.992;8.820;2023-06-24T04:40:34;21.00;50.30
48043;DHT22;33988;47.992;8.820;2023-06-24T04:43:01;21.00;50.30
48043;DHT22;33988;47.992;8.820;2023-06-24T04:45:30;21.00;50.40
48043;DHT22;33988;47.992;8.820;2023-06-24T04:48:02;21.10;50.40
48043;DHT22;33988;47.992;8.820;2023-06-24T04:50:29;21.10;50.50
48043;DHT22;33988;47.992;8.820;2023-06-24T04:52:56;21.10;50.50
48043;DHT22;33988;47.992;8.820;2023-06-24T04:55:23;21.10;50.60
48043;DHT22;33988;47.992;8.820;2023-06-24T04:57:50;21.10;50.60
48043;DHT22;33988;47.992;8.820;2023-06-24T05:00:17;21.10;50.60
48043;DHT22;33988;47.992;8.820;2023-06-24T05:02:46;21.10;50.60
48043;DHT22;33988;47.992;8.820;2023-06-24T05:05:13;21.20;50.70
48043;DHT22;33988;47.992;8.820;2023-06-24T05:07:41;21.20;50.60
48043;DHT22;33988;47.992;8.820;2023-06-24T05:10:08;21.20;50.70
48043;DHT22;33988;47.992;8.820;2023-06-24T05:12:35;21.20;50.60
48043;DHT22;33988;47.992;8.820;2023-06-24T05:15:02;21.30;50.70
48043;DHT22;33988;47.992;8.820;2023-06-24T05:17:29;21.30;50.70
48043;DHT22;33988;47.992;8.820;2023-06-24T05:19:56;21.30;50.70
48043;DHT22;33988;47.992;8.820;2023-06-24T05:22:27;21.40;50.80
48043;DHT22;33988;47.992;8.820;2023-06-24T05:24:54;21.40;50.80
48043;DHT22;33988;47.992;8.820;2023-06-24T05:27:23;21.40;50.70
48043;DHT22;33988;47.992;8.820;2023-06-24T05:29:50;21.40;50.70
48043;DHT22;33988;47.992;8.820;2023-06-24T05:32:17;21.50;50.70
48043;DHT22;33988;47.992;8.820;2023-06-24T05:34:47;21.40;50.70
48043;DHT22;33988;47.992;8.820;2023-06-24T05:37:14;21.50;50.70
48043;DHT22;33988;47.992;8.820;2023-06-24T05:39:41;21.60;50.80
48043;DHT22;33988;47.992;8.820;2023-06-24T05:42:10;21.50;50.70
48043;DHT22;33988;47.992;8.820;2023-06-24T05:44:37;21.60;50.80
48043;DHT22;33988;47.992;8.820;2023-06-24T05:47:04;21.60;50.80
48043;DHT22;33988;47.992;8.820;2023-06-24T05:49:31;21.70;50.80
48043;DHT22;33988;47.992;8.820;2023-06-24T05:52:01;21.70;50.90
48043;DHT22;33988;47.992;8.820;2023-06-24T05:54:30;21.70;51.00
48043;DHT22;33988;47.992;8.820;2023-06-24T05:56:57;21.80;51.00
48043;DHT22;33988;47.992;8.820;2023-06-24T05:59:24;21.90;51.00
48043;DHT22;33988;47.992;8.820;2023-06-24T06:01:51;21.90;50.90
48043;DHT22;33988;47.992;8.820;2023-06-24T06:04:18;22.00;51.10
48043;DHT22;33988;47.992;8.820;2023-06-24T06:06:50;22.10;51.00
48043;DHT22;33988;47.992;8.820;2023-06-24T06:09:17;22.10;50.90
48043;DHT22;33988;47.992;8.820;2023-06-24T06:11:44;22.20;50.90
48043;DHT22;33988;47.992;8.820;2023-06-24T06:14:11;22.30;51.00
48043;DHT22;33988;47.992;8.820;2023-06-24T06:16:38;22.30;50.90
48043;DHT22;33988;47.992;8.820;2023-06-24T06:19:05;22.40;51.00
48043;DHT22;33988;47.992;8.820;2023-06-24T06:21:36;22.50;51.00
48043;DHT22;33988;47.992;8.820;2023-06-24T06:24:04;22.60;51.00
48043;DHT22;33988;47.992;8.820;2023-06-24T06:26:33;22.60;50.90
48043;DHT22;33988;47.992;8.820;2023-06-24T06:29:03;22.70;51.00
48043;DHT22;33988;47.992;8.820;2023-06-24T06:31:30;22.80;51.10
48043;DHT22;33988;47.992;8.820;2023-06-24T06:33:57;22.90;51.10
48043;DHT22;33988;47.992;8.820;2023-06-24T06:36:24;23.00;51.10
48043;DHT22;33988;47.992;8.820;2023-06-24T06:38:51;23.10;51.00
48043;DHT22;33988;47.992;8.820;2023-06-24T06:41:20;23.20;50.80
48043;DHT22;33988;47.992;8.820;2023-06-24T06:43:55;23.30;50.70
48043;DHT22;33988;47.992;8.820;2023-06-24T06:46:24;23.40;50.70
48043;DHT22;33988;47.992;8.820;2023-06-24T06:48:51;23.50;50.60
48043;DHT22;33988;47.992;8.820;2023-06-24T06:51:18;23.60;50.60
48043;DHT22;33988;47.992;8.820;2023-06-24T06:53:46;23.70;50.50
48043;DHT22;33988;47.992;8.820;2023-06-24T06:56:23;23.80;50.50
48043;DHT22;33988;47.992;8.820;2023-06-24T06:58:53;23.90;50.40
48043;DHT22;33988;47.992;8.820;2023-06-24T07:01:22;24.10;50.70
48043;DHT22;33988;47.992;8.820;2023-06-24T07:03:50;24.30;50.90
48043;DHT22;33988;47.992;8.820;2023-06-24T07:06:20;24.50;51.00
48043;DHT22;33988;47.992;8.820;2023-06-24T07:08:51;24.80;51.20
48043;DHT22;33988;47.992;8.820;2023-06-24T07:11:19;25.20;51.90
48043;DHT22;33988;47.992;8.820;2023-06-24T07:13:49;25.70;51.90
48043;DHT22;33988;47.992;8.820;2023-06-24T07:16:18;26.40;51.80
48043;DHT22;33988;47.992;8.820;2023-06-24T07:18:49;27.10;51.20
48043;DHT22;33988;47.992;8.820;2023-06-24T07:21:15;27.90;50.60
48043;DHT22;33988;47.992;8.820;2023-06-24T07:23:45;28.70;49.20
48043;DHT22;33988;47.992;8.820;2023-06-24T07:26:16;29.40;47.80
48043;DHT22;33988;47.992;8.820;2023-06-24T07:28:43;30.10;46.30
48043;DHT22;33988;47.992;8.820;2023-06-24T07:31:24;30.70;44.60
48043;DHT22;33988;47.992;8.820;2023-06-24T07:33:54;31.20;43.00
48043;DHT22;33988;47.992;8.820;2023-06-24T07:36:23;31.40;41.40
48043;DHT22;33988;47.992;8.820;2023-06-24T07:38:53;31.50;40.40
48043;DHT22;33988;47.992;8.820;2023-06-24T07:41:19;31.50;39.60
48043;DHT22;33988;47.992;8.820;2023-06-24T07:43:52;31.40;39.20
48043;DHT22;33988;47.992;8.820;2023-06-24T07:46:21;31.20;38.60
48043;DHT22;33988;47.992;8.820;2023-06-24T07:48:48;31.00;38.40
48043;DHT22;33988;47.992;8.820;2023-06-24T07:51:15;30.80;38.30
48043;DHT22;33988;47.992;8.820;2023-06-24T07:53:45;30.60;38.20
48043;DHT22;33988;47.992;8.820;2023-06-24T07:56:12;30.30;38.60
48043;DHT22;33988;47.992;8.820;2023-06-24T07:58:41;30.10;39.00
48043;DHT22;33988;47.992;8.820;2023-06-24T08:01:08;29.90;38.60
48043;DHT22;33988;47.992;8.820;2023-06-24T08:03:35;29.60;38.50
48043;DHT22;33988;47.992;8.820;2023-06-24T08:06:04;29.40;38.40
48043;DHT22;33988;47.992;8.820;2023-06-24T08:08:31;29.20;38.80
48043;DHT22;33988;47.992;8.820;2023-06-24T08:10:58;29.10;39.20
48043;DHT22;33988;47.992;8.820;2023-06-24T08:13:24;28.90;39.30
48043;DHT22;33988;47.992;8.820;2023-06-24T08:15:51;28.80;39.20
48043;DHT22;33988;47.992;8.820;2023-06-24T08:18:20;28.60;39.30
48043;DHT22;33988;47.992;8.820;2023-06-24T08:20:47;28.50;39.50
48043;DHT22;33988;47.992;8.820;2023-06-24T08:23:16;28.40;39.60
48043;DHT22;33988;47.992;8.820;2023-06-24T08:25:43;28.30;40.00
48043;DHT22;33988;47.992;8.820;2023-06-24T08:28:11;28.20;40.20
48043;DHT22;33988;47.992;8.820;2023-06-24T08:30:38;28.20;40.10
48043;DHT22;33988;47.992;8.820;2023-06-24T08:33:10;28.10;40.20
48043;DHT22;33988;47.992;8.820;2023-06-24T08:35:40;28.00;40.80
48043;DHT22;33988;47.992;8.820;2023-06-24T08:38:06;28.00;41.00
48043;DHT22;33988;47.992;8.820;2023-06-24T08:40:36;28.00;41.00
48043;DHT22;33988;47.992;8.820;2023-06-24T08:43:06;28.00;40.70
48043;DHT22;33988;47.992;8.820;2023-06-24T08:45:33;28.00;40.40
48043;DHT22;33988;47.992;8.820;2023-06-24T08:48:01;27.90;40.00
48043;DHT22;33988;47.992;8.820;2023-06-24T08:50:40;27.90;40.10
48043;DHT22;33988;47.992;8.820;2023-06-24T08:53:11;27.90;40.90
48043;DHT22;33988;47.992;8.820;2023-06-24T08:55:44;27.90;41.10
48043;DHT22;33988;47.992;8.820;2023-06-24T08:58:15;27.80;41.10
48043;DHT22;33988;47.992;8.820;2023-06-24T09:00:43;27.80;41.00
48043;DHT22;33988;47.992;8.820;2023-06-24T09:03:10;27.90;41.00
48043;DHT22;33988;47.992;8.820;2023-06-24T09:05:37;27.90;41.20
48043;DHT22;33988;47.992;8.820;2023-06-24T09:08:04;27.90;41.20
48043;DHT22;33988;47.992;8.820;2023-06-24T09:10:32;27.90;41.40
48043;DHT22;33988;47.992;8.820;2023-06-24T09:13:04;28.00;41.50
48043;DHT22;33988;47.992;8.820;2023-06-24T09:15:33;28.10;41.80
48043;DHT22;33988;47.992;8.820;2023-06-24T09:18:02;28.10;41.80
48043;DHT22;33988;47.992;8.820;2023-06-24T09:20:31;28.10;41.60
48043;DHT22;33988;47.992;8.820;2023-06-24T09:23:00;28.20;41.60
48043;DHT22;33988;47.992;8.820;2023-06-24T09:25:29;28.20;41.40
48043;DHT22;33988;47.992;8.820;2023-06-24T09:28:03;28.30;41.20
48043;DHT22;33988;47.992;8.820;2023-06-24T09:30:31;28.30;40.70
48043;DHT22;33988;47.992;8.820;2023-06-24T09:33:00;28.30;40.70
48043;DHT22;33988;47.992;8.820;2023-06-24T09:35:27;28.30;41.10
48043;DHT22;33988;47.992;8.820;2023-06-24T09:37:58;28.30;41.10
48043;DHT22;33988;47.992;8.820;2023-06-24T09:40:26;28.40;41.00
48043;DHT22;33988;47.992;8.820;2023-06-24T09:42:58;28.40;41.10
48043;DHT22;33988;47.992;8.820;2023-06-24T09:45:28;28.40;40.70
48043;DHT22;33988;47.992;8.820;2023-06-24T09:47:58;28.50;40.40
48043;DHT22;33988;47.992;8.820;2023-06-24T09:50:25;28.50;40.10
48043;DHT22;33988;47.992;8.820;2023-06-24T09:52:55;28.50;39.70
48043;DHT22;33988;47.992;8.820;2023-06-24T09:55:24;28.60;39.50
48043;DHT22;33988;47.992;8.820;2023-06-24T09:57:56;28.60;39.40
48043;DHT22;33988;47.992;8.820;2023-06-24T10:00:24;28.60;39.20
48043;DHT22;33988;47.992;8.820;2023-06-24T10:02:53;28.60;39.20
48043;DHT22;33988;47.992;8.820;2023-06-24T10:05:27;28.60;39.30
48043;DHT22;33988;47.992;8.820;2023-06-24T10:07:54;28.70;39.30
48043;DHT22;33988;47.992;8.820;2023-06-24T10:10:21;28.70;39.40
48043;DHT22;33988;47.992;8.820;2023-06-24T10:12:50;28.80;39.30
48043;DHT22;33988;47.992;8.820;2023-06-24T10:15:17;28.80;39.20
48043;DHT22;33988;47.992;8.820;2023-06-24T10:17:47;28.80;39.10
48043;DHT22;33988;47.992;8.820;2023-06-24T10:20:24;28.90;38.90
48043;DHT22;33988;47.992;8.820;2023-06-24T10:22:52;28.90;38.20
48043;DHT22;33988;47.992;8.820;2023-06-24T10:25:24;28.90;38.10
48043;DHT22;33988;47.992;8.820;2023-06-24T10:28:07;28.90;38.30
48043;DHT22;33988;47.992;8.820;2023-06-24T10:30:36;29.00;38.60
48043;DHT22;33988;47.992;8.820;2023-06-24T10:33:11;29.00;38.50
48043;DHT22;33988;47.992;8.820;2023-06-24T10:35:41;29.00;38.10
48043;DHT22;33988;47.992;8.820;2023-06-24T10:38:10;29.00;37.80
48043;DHT22;33988;47.992;8.820;2023-06-24T10:40:39;29.00;37.90
48043;DHT22;33988;47.992;8.820;2023-06-24T10:43:28;29.00;37.60
48043;DHT22;33988;47.992;8.820;2023-06-24T10:46:01;29.00;37.50
48043;DHT22;33988;47.992;8.820;2023-06-24T10:48:30;29.00;37.90
48043;DHT22;33988;47.992;8.820;2023-06-24T10:50:57;29.00;37.80
48043;DHT22;33988;47.992;8.820;2023-06-24T10:53:29;29.00;37.50
48043;DHT22;33988;47.992;8.820;2023-06-24T10:55:57;29.10;37.40
48043;DHT22;33988;47.992;8.820;2023-06-24T10:58:27;29.00;37.10
48043;DHT22;33988;47.992;8.820;2023-06-24T11:01:06;29.00;37.20
48043;DHT22;33988;47.992;8.820;2023-06-24T11:03:34;29.00;36.90
48043;DHT22;33988;47.992;8.820;2023-06-24T11:06:04;29.10;37.10
48043;DHT22;33988;47.992;8.820;2023-06-24T11:08:31;29.10;37.20
48043;DHT22;33988;47.992;8.820;2023-06-24T11:11:01;29.10;37.50
48043;DHT22;33988;47.992;8.820;2023-06-24T11:13:33;29.10;37.40
48043;DHT22;33988;47.992;8.820;2023-06-24T11:16:00;29.10;37.30
48043;DHT22;33988;47.992;8.820;2023-06-24T11:18:37;29.10;37.20
48043;DHT22;33988;47.992;8.820;2023-06-24T11:21:09;29.10;36.90
48043;DHT22;33988;47.992;8.820;2023-06-24T11:23:36;29.20;36.90
48043;DHT22;33988;47.992;8.820;2023-06-24T11:26:03;28.90;37.40
48043;DHT22;33988;47.992;8.820;2023-06-24T11:28:31;29.10;36.80
48043;DHT22;33988;47.992;8.820;2023-06-24T11:31:06;29.20;36.40
48043;DHT22;33988;47.992;8.820;2023-06-24T11:33:39;29.10;36.60
48043;DHT22;33988;47.992;8.820;2023-06-24T11:36:09;29.20;36.70
48043;DHT22;33988;47.992;8.820;2023-06-24T11:38:39;29.10;36.40
48043;DHT22;33988;47.992;8.820;2023-06-24T11:41:06;29.20;36.30
48043;DHT22;33988;47.992;8.820;2023-06-24T11:43:33;29.20;36.50
48043;DHT22;33988;47.992;8.820;2023-06-24T11:46:02;29.20;36.60
48043;DHT22;33988;47.992;8.820;2023-06-24T11:48:29;29.20;36.70
48043;DHT22;33988;47.992;8.820;2023-06-24T11:51:12;29.30;36.80
48043;DHT22;33988;47.992;8.820;2023-06-24T11:53:44;29.30;36.60
48043;DHT22;33988;47.992;8.820;2023-06-24T11:56:15;29.30;36.70
48043;DHT22;33988;47.992;8.820;2023-06-24T11:58:43;29.40;36.80
48043;DHT22;33988;47.992;8.820;2023-06-24T12:01:10;29.40;36.80
48043;DHT22;33988;47.992;8.820;2023-06-24T12:03:43;29.50;36.80
48043;DHT22;33988;47.992;8.820;2023-06-24T12:06:10;29.50;36.60
48043;DHT22;33988;47.992;8.820;2023-06-24T12:08:37;29.50;36.50
48043;DHT22;33988;47.992;8.820;2023-06-24T12:11:17;29.50;36.20
48043;DHT22;33988;47.992;8.820;2023-06-24T12:13:47;29.50;36.00
48043;DHT22;33988;47.992;8.820;2023-06-24T12:16:14;29.50;35.70
48043;DHT22;33988;47.992;8.820;2023-06-24T12:18:41;29.50;36.00
48043;DHT22;33988;47.992;8.820;2023-06-24T12:21:10;29.60;36.40
48043;DHT22;33988;47.992;8.820;2023-06-24T12:23:37;29.60;36.20
48043;DHT22;33988;47.992;8.820;2023-06-24T12:26:06;29.60;36.20
48043;DHT22;33988;47.992;8.820;2023-06-24T12:28:33;29.70;36.00
48043;DHT22;33988;47.992;8.820;2023-06-24T12:31:00;29.70;35.80
48043;DHT22;33988;47.992;8.820;2023-06-24T12:33:27;29.70;35.60
48043;DHT22;33988;47.992;8.820;2023-06-24T12:35:56;29.70;35.70
48043;DHT22;33988;47.992;8.820;2023-06-24T12:38:25;29.70;35.60
48043;DHT22;33988;47.992;8.820;2023-06-24T12:40:57;29.70;35.70
48043;DHT22;33988;47.992;8.820;2023-06-24T12:43:24;29.70;35.80
48043;DHT22;33988;47.992;8.820;2023-06-24T12:45:51;29.80;35.90
48043;DHT22;33988;47.992;8.820;2023-06-24T12:48:18;29.80;35.80
48043;DHT22;33988;47.992;8.820;2023-06-24T12:50:47;29.80;35.90
48043;DHT22;33988;47.992;8.820;2023-06-24T12:53:20;29.80;35.70
48043;DHT22;33988;47.992;8.820;2023-06-24T12:55:47;29.80;36.30
48043;DHT22;33988;47.992;8.820;2023-06-24T12:58:22;29.80;35.20
48043;DHT22;33988;47.992;8.820;2023-06-24T13:00:49;29.80;35.00
48043;DHT22;33988;47.992;8.820;2023-06-24T13:03:18;29.90;35.10
48043;DHT22;33988;47.992;8.820;2023-06-24T13:05:45;29.90;35.30
48043;DHT22;33988;47.992;8.820;2023-06-24T13:08:17;29.90;35.30
48043;DHT22;33988;47.992;8.820;2023-06-24T13:10:46;29.90;35.30
48043;DHT22;33988;47.992;8.820;2023-06-24T13:13:13;29.90;35.40
48043;DHT22;33988;47.992;8.820;2023-06-24T13:15:43;29.90;35.40
48043;DHT22;33988;47.992;8.820;2023-06-24T13:18:14;30.00;35.50
48043;DHT22;33988;47.992;8.820;2023-06-24T13:20:43;30.00;35.40
48043;DHT22;33988;47.992;8.820;2023-06-24T13:23:11;30.00;35.70
48043;DHT22;33988;47.992;8.820;2023-06-24T13:25:41;29.90;34.90
48043;DHT22;33988;47.992;8.820;2023-06-24T13:28:08;29.90;35.00
48043;DHT22;33988;47.992;8.820;2023-06-24T13:30:37;29.90;34.90
48043;DHT22;33988;47.992;8.820;2023-06-24T13:33:07;29.90;35.20
48043;DHT22;33988;47.992;8.820;2023-06-24T13:35:36;29.90;35.40
48043;DHT22;33988;47.992;8.820;2023-06-24T13:38:03;29.90;35.50
48043;DHT22;33988;47.992;8.820;2023-06-24T13:40:33;29.90;35.00
48043;DHT22;33988;47.992;8.820;2023-06-24T13:43:01;29.90;35.00
48043;DHT22;33988;47.992;8.820;2023-06-24T13:45:30;29.90;34.90
48043;DHT22;33988;47.992;8.820;2023-06-24T13:48:01;30.00;35.00
48043;DHT22;33988;47.992;8.820;2023-06-24T13:50:29;30.00;34.80
48043;DHT22;33988;47.992;8.820;2023-06-24T13:52:58;30.00;34.70
48043;DHT22;33988;47.992;8.820;2023-06-24T13:55:28;30.00;35.00
48043;DHT22;33988;47.992;8.820;2023-06-24T13:57:54;30.10;35.10
48043;DHT22;33988;47.992;8.820;2023-06-24T14:00:24;30.10;34.90
48043;DHT22;33988;47.992;8.820;2023-06-24T14:02:52;30.10;34.90
48043;DHT22;33988;47.992;8.820;2023-06-24T14:05:21;30.10;35.00
48043;DHT22;33988;47.992;8.820;2023-06-24T14:07:50;30.10;35.20
48043;DHT22;33988;47.992;8.820;2023-06-24T14:10:22;30.10;35.10
48043;DHT22;33988;47.992;8.820;2023-06-24T14:12:49;30.10;34.70
48043;DHT22;33988;47.992;8.820;2023-06-24T14:15:16;30.10;34.40
48043;DHT22;33988;47.992;8.820;2023-06-24T14:17:43;30.10;34.40
48043;DHT22;33988;47.992;8.820;2023-06-24T14:20:15;30.10;34.50
48043;DHT22;33988;47.992;8.820;2023-06-24T14:22:42;30.10;34.80
48043;DHT22;33988;47.992;8.820;2023-06-24T14:25:09;30.10;34.60
48043;DHT22;33988;47.992;8.820;2023-06-24T14:27:36;30.10;34.50
48043;DHT22;33988;47.992;8.820;2023-06-24T14:30:04;30.10;34.60
48043;DHT22;33988;47.992;8.820;2023-06-24T14:32:32;30.10;34.50
48043;DHT22;33988;47.992;8.820;2023-06-24T14:34:59;30.10;34.20
48043;DHT22;33988;47.992;8.820;2023-06-24T14:37:28;30.10;34.30
48043;DHT22;33988;47.992;8.820;2023-06-24T14:39:55;30.10;34.30
48043;DHT22;33988;47.992;8.820;2023-06-24T14:42:24;30.10;34.30
48043;DHT22;33988;47.992;8.820;2023-06-24T14:44:51;30.10;34.40
48043;DHT22;33988;47.992;8.820;2023-06-24T14:47:20;30.10;34.40
48043;DHT22;33988;47.992;8.820;2023-06-24T14:49:50;30.10;34.50
48043;DHT22;33988;47.992;8.820;2023-06-24T14:52:17;30.00;34.30
48043;DHT22;33988;47.992;8.820;2023-06-24T14:54:45;30.00;34.10
48043;DHT22;33988;47.992;8.820;2023-06-24T14:57:13;30.00;34.00
48043;DHT22;33988;47.992;8.820;2023-06-24T14:59:43;29.90;34.10
48043;DHT22;33988;47.992;8.820;2023-06-24T15:02:13;29.90;34.10
48043;DHT22;33988;47.992;8.820;2023-06-24T15:04:42;29.90;34.10
48043;DHT22;33988;47.992;8.820;2023-06-24T15:07:11;29.90;34.10
48043;DHT22;33988;47.992;8.820;2023-06-24T15:09:43;29.80;34.10
48043;DHT22;33988;47.992;8.820;2023-06-24T15:12:11;29.80;34.00
48043;DHT22;33988;47.992;8.820;2023-06-24T15:14:40;29.80;34.00
48043;DHT22;33988;47.992;8.820;2023-06-24T15:17:07;29.80;34.00
48043;DHT22;33988;47.992;8.820;2023-06-24T15:19:34;29.80;34.00
48043;DHT22;33988;47.992;8.820;2023-06-24T15:22:01;29.70;33.90
48043;DHT22;33988;47.992;8.820;2023-06-24T15:24:28;29.70;33.80
48043;DHT22;33988;47.992;8.820;2023-06-24T15:26:57;29.70;33.90
48043;DHT22;33988;47.992;8.820;2023-06-24T15:29:27;29.70;34.70
48043;DHT22;33988;47.992;8.820;2023-06-24T15:32:00;29.60;33.90
48043;DHT22;33988;47.992;8.820;2023-06-24T15:34:28;29.60;33.90
48043;DHT22;33988;47.992;8.820;2023-06-24T15:36:55;29.60;33.90
48043;DHT22;33988;47.992;8.820;2023-06-24T15:39:22;29.50;33.70
48043;DHT22;33988;47.992;8.820;2023-06-24T15:41:49;29.50;33.90
48043;DHT22;33988;47.992;8.820;2023-06-24T15:44:19;29.50;33.80
48043;DHT22;33988;47.992;8.820;2023-06-24T15:46:46;29.50;33.70
48043;DHT22;33988;47.992;8.820;2023-06-24T15:49:16;29.40;33.70